| time (UTC) | temp C | wind direction | speed KPH | gust KPH | rain 1hr cm | rain 24hr cm | rain mn cm | humidity % | barometer mb |
| 20260506203604 | 10 | 307 | 0.0 | 1.6 | 0.00 | 0.03 | 0.03 | 79 | 1013.5 |
| 20260506203101 | 10 | 307 | 0.0 | 1.6 | 0.00 | 0.03 | 0.03 | 78 | 1013.4 |
| 20260506202601 | 10 | 306 | 0.0 | 1.6 | 0.00 | 0.03 | 0.03 | 78 | 1013.5 |
| 20260506202103 | 10 | 305 | 0.0 | 1.6 | 0.00 | 0.03 | 0.03 | 78 | 1013.4 |
| 20260506201831 | 10 | 306 | 0.0 | 1.6 | 0.00 | 0.03 | 0.03 | 78 | 1013.6 |
| 20260506201101 | 10 | 304 | 0.0 | 1.6 | 0.00 | 0.03 | 0.03 | 78 | 1013.4 |
| 20260506200601 | 10 | 302 | 0.0 | 1.6 | 0.00 | 0.03 | 0.03 | 78 | 1013.2 |
| 20260506195602 | 10 | 305 | 0.0 | 1.6 | 0.00 | 0.03 | 0.03 | 78 | 1013.2 |
| 20260506195104 | 10 | 290 | 0.0 | 1.6 | 0.00 | 0.03 | 0.03 | 78 | 1013.0 |
| 20260506194602 | 10 | 298 | 0.0 | 1.6 | 0.00 | 0.03 | 0.03 | 77 | 1013.0 |
| 20260506194106 | 10 | 305 | 0.0 | 3.2 | 0.00 | 0.03 | 0.03 | 77 | 1013.0 |
| 20260506193602 | 10 | 305 | 0.0 | 3.2 | 0.00 | 0.03 | 0.03 | 77 | 1012.8 |
| 20260506193104 | 10 | 297 | 0.0 | 3.2 | 0.00 | 0.03 | 0.03 | 76 | 1013.1 |
| 20260506192604 | 10 | 283 | 0.0 | 3.2 | 0.00 | 0.03 | 0.03 | 76 | 1012.9 |
| 20260506192109 | 10 | 302 | 0.0 | 3.2 | 0.00 | 0.03 | 0.03 | 76 | 1012.8 |
| 20260506191603 | 10 | 311 | 0.0 | 4.8 | 0.00 | 0.03 | 0.03 | 76 | 1012.7 |
| 20260506191103 | 10 | 81 | 1.6 | 4.8 | 0.00 | 0.03 | 0.03 | 76 | 1012.6 |
| 20260506190603 | 10 | 289 | 0.0 | 3.2 | 0.00 | 0.03 | 0.03 | 77 | 1012.7 |
| 20260506190101 | 10 | 269 | 0.0 | 3.2 | 0.00 | 0.03 | 0.03 | 77 | 1012.5 |
| 20260506185601 | 10 | 313 | 0.0 | 3.2 | 0.00 | 0.03 | 0.03 | 77 | 1012.6 |
| 20260506185105 | 10 | 259 | 1.6 | 3.2 | 0.00 | 0.03 | 0.03 | 78 | 1012.7 |
| 20260506184601 | 10 | 288 | 1.6 | 3.2 | 0.00 | 0.03 | 0.03 | 78 | 1012.4 |
| 20260506184101 | 10 | 284 | 0.0 | 1.6 | 0.00 | 0.03 | 0.03 | 79 | 1012.4 |
| 20260506183827 | 10 | 309 | 1.6 | 3.2 | 0.00 | 0.03 | 0.03 | 79 | 1012.3 |
| 20260506183101 | 10 | 343 | 1.6 | 3.2 | 0.00 | 0.03 | 0.03 | 79 | 1012.4 |
| 20260506182600 | 10 | 309 | 0.0 | 1.6 | 0.00 | 0.03 | 0.03 | 79 | 1012.4 |
| 20260506182101 | 10 | 293 | 0.0 | 3.2 | 0.00 | 0.03 | 0.03 | 79 | 1012.3 |
| 20260506181600 | 10 | 317 | 0.0 | 3.2 | 0.00 | 0.03 | 0.03 | 79 | 1012.3 |
| 20260506181323 | 10 | 304 | 0.0 | 3.2 | 0.00 | 0.03 | 0.03 | 79 | 1012.3 |
| 20260506180601 | 10 | 298 | 0.0 | 3.2 | 0.00 | 0.03 | 0.03 | 79 | 1012.0 |
| 20260506175601 | 10 | 299 | 0.0 | 3.2 | 0.00 | 0.03 | 0.03 | 78 | 1012.0 |
| 20260506175328 | 10 | 299 | 1.6 | 4.8 | 0.00 | 0.03 | 0.03 | 78 | 1011.8 |
| 20260506174600 | 10 | 276 | 0.0 | 6.4 | 0.00 | 0.03 | 0.03 | 78 | 1011.8 |
| 20260506174101 | 10 | 305 | 0.0 | 6.4 | 0.00 | 0.03 | 0.03 | 78 | 1011.9 |
| 20260506173606 | 10 | 314 | 1.6 | 11.3 | 0.00 | 0.03 | 0.03 | 78 | 1011.7 |
| 20260506173602 | 10 | 327 | 3.2 | 9.7 | 0.00 | 0.03 | 0.03 | 78 | 1011.8 |
| 20260506172601 | 10 | 12 | 4.8 | 11.3 | 0.00 | 0.03 | 0.03 | 79 | 1011.7 |
| 20260506172101 | 10 | 346 | 3.2 | 6.4 | 0.00 | 0.03 | 0.03 | 79 | 1011.6 |
| 20260506171600 | 10 | 300 | 0.0 | 6.4 | 0.00 | 0.03 | 0.03 | 80 | 1011.7 |
| 20260506171101 | 10 | 5 | 1.6 | 6.4 | 0.00 | 0.03 | 0.03 | 80 | 1011.5 |
| 20260506170832 | 10 | 343 | 0.0 | 11.3 | 0.00 | 0.03 | 0.03 | 80 | 1011.5 |
| 20260506170108 | 10 | 128 | 1.6 | 11.3 | 0.00 | 0.03 | 0.03 | 80 | 1011.3 |
| 20260506165604 | 10 | 312 | 1.6 | 4.8 | 0.00 | 0.03 | 0.03 | 80 | 1011.5 |
| 20260506165102 | 10 | 57 | 3.2 | 9.7 | 0.00 | 0.03 | 0.03 | 80 | 1011.4 |
| 20260506164600 | 11 | 10 | 1.6 | 9.7 | 0.00 | 0.03 | 0.03 | 79 | 1011.3 |
| 20260506164103 | 11 | 67 | 3.2 | 9.7 | 0.00 | 0.03 | 0.03 | 79 | 1011.5 |
| 20260506163602 | 10 | 326 | 1.6 | 11.3 | 0.00 | 0.03 | 0.03 | 80 | 1011.3 |
| 20260506163101 | 10 | 335 | 3.2 | 11.3 | 0.00 | 0.03 | 0.03 | 79 | 1011.2 |
| 20260506162600 | 10 | 17 | 3.2 | 12.9 | 0.00 | 0.03 | 0.03 | 79 | 1011.4 |
| 20260506162102 | 10 | 43 | 6.4 | 12.9 | 0.00 | 0.03 | 0.03 | 79 | 1011.3 |
| 20260506161602 | 10 | 256 | 0.0 | 11.3 | 0.00 | 0.03 | 0.03 | 80 | 1011.3 |
| 20260506161333 | 10 | 289 | 1.6 | 11.3 | 0.00 | 0.03 | 0.03 | 80 | 1011.3 |
| 20260506160831 | 10 | 348 | 3.2 | 11.3 | 0.00 | 0.03 | 0.03 | 79 | 1011.3 |
| 20260506155601 | 10 | 310 | 6.4 | 12.9 | 0.00 | 0.03 | 0.03 | 78 | 1011.3 |
| 20260506155100 | 11 | 277 | 3.2 | 12.9 | 0.00 | 0.03 | 0.03 | 78 | 1011.2 |
| 20260506154603 | 11 | 272 | 6.4 | 12.9 | 0.00 | 0.03 | 0.03 | 77 | 1011.3 |
| 20260506154102 | 11 | 264 | 0.0 | 12.9 | 0.00 | 0.03 | 0.03 | 77 | 1011.3 |
| 20260506153602 | 11 | 275 | 0.0 | 12.9 | 0.00 | 0.03 | 0.03 | 76 | 1011.1 |
| 20260506153102 | 11 | 36 | 4.8 | 6.4 | 0.00 | 0.03 | 0.03 | 74 | 1011.1 |
| 20260506152601 | 11 | 266 | 0.0 | 6.4 | 0.00 | 0.03 | 0.03 | 74 | 1011.1 |
| 20260506152102 | 11 | 286 | 1.6 | 4.8 | 0.00 | 0.03 | 0.03 | 73 | 1011.1 |
| 20260506151603 | 11 | 283 | 0.0 | 9.7 | 0.00 | 0.03 | 0.03 | 72 | 1011.1 |
| 20260506151102 | 11 | 45 | 3.2 | 12.9 | 0.00 | 0.03 | 0.03 | 72 | 1010.9 |
| 20260506150602 | 11 | 25 | 3.2 | 12.9 | 0.00 | 0.03 | 0.03 | 72 | 1011.2 |
| 20260506150101 | 11 | 241 | 0.0 | 9.7 | 0.00 | 0.03 | 0.03 | 72 | 1011.0 |
| 20260506145601 | 11 | 11 | 1.6 | 11.3 | 0.00 | 0.03 | 0.03 | 71 | 1011.1 |
| 20260506145100 | 11 | 39 | 8.0 | 11.3 | 0.00 | 0.03 | 0.03 | 71 | 1011.0 |
| 20260506144602 | 11 | 310 | 3.2 | 9.7 | 0.00 | 0.03 | 0.03 | 70 | 1011.1 |
| 20260506144101 | 11 | 300 | 3.2 | 6.4 | 0.00 | 0.03 | 0.03 | 70 | 1011.0 |
| 20260506143600 | 11 | 313 | 0.0 | 6.4 | 0.00 | 0.03 | 0.03 | 70 | 1010.9 |
| 20260506143337 | 11 | 267 | 3.2 | 9.7 | 0.00 | 0.03 | 0.03 | 70 | 1011.0 |
| 20260506142602 | 11 | 258 | 1.6 | 11.3 | 0.00 | 0.03 | 0.03 | 70 | 1010.9 |
| 20260506142103 | 11 | 253 | 4.8 | 12.9 | 0.00 | 0.03 | 0.03 | 68 | 1010.9 |
| 20260506141602 | 11 | 20 | 8.0 | 12.9 | 0.00 | 0.03 | 0.03 | 67 | 1010.9 |
| 20260506141102 | 12 | 278 | 0.0 | 11.3 | 0.00 | 0.03 | 0.03 | 68 | 1010.9 |
| 20260506140829 | 12 | 263 | 3.2 | 11.3 | 0.00 | 0.03 | 0.03 | 66 | 1010.8 |
| 20260506135600 | 12 | 5 | 4.8 | 14.5 | 0.00 | 0.03 | 0.03 | 66 | 1011.0 |
| 20260506135108 | 12 | 296 | 1.6 | 14.5 | 0.00 | 0.03 | 0.03 | 65 | 1010.9 |
| 20260506134606 | 12 | 278 | 4.8 | 9.7 | 0.00 | 0.03 | 0.03 | 64 | 1010.9 |
| 20260506134106 | 12 | 266 | 3.2 | 9.7 | 0.00 | 0.03 | 0.03 | 66 | 1010.7 |
| 20260506134101 | 12 | 322 | 3.2 | 9.7 | 0.00 | 0.03 | 0.03 | 65 | 1010.7 |
| 20260506133100 | 12 | 143 | 6.4 | 12.9 | 0.00 | 0.03 | 0.03 | 65 | 1010.8 |
| 20260506132603 | 12 | 279 | 6.4 | 12.9 | 0.00 | 0.03 | 0.03 | 65 | 1010.9 |
| 20260506132103 | 12 | 266 | 1.6 | 11.3 | 0.00 | 0.03 | 0.03 | 66 | 1010.8 |
| 20260506131603 | 12 | 352 | 4.8 | 11.3 | 0.00 | 0.03 | 0.03 | 66 | 1010.8 |
| 20260506131102 | 12 | 52 | 4.8 | 12.9 | 0.00 | 0.03 | 0.03 | 66 | 1010.7 |
| 20260506130602 | 12 | 21 | 3.2 | 12.9 | 0.00 | 0.03 | 0.03 | 67 | 1010.6 |
| 20260506125603 | 12 | 70 | 3.2 | 14.5 | 0.00 | 0.03 | 0.03 | 67 | 1010.7 |
| 20260506125054 | 12 | 286 | 3.2 | 12.9 | 0.00 | 0.03 | 0.03 | 67 | 1010.6 |
| 20260506124557 | 11 | 322 | 3.2 | 12.9 | 0.00 | 0.03 | 0.03 | 68 | 1010.6 |
| 20260506124053 | 11 | 274 | 0.0 | 14.5 | 0.00 | 0.03 | 0.03 | 69 | 1010.6 |
| 20260506123555 | 11 | 16 | 1.6 | 14.5 | 0.00 | 0.03 | 0.03 | 68 | 1010.5 |
| 20260506123323 | 11 | 355 | 1.6 | 9.7 | 0.00 | 0.03 | 0.03 | 69 | 1010.7 |
| 20260506122552 | 11 | 185 | 1.6 | 12.9 | 0.00 | 0.03 | 0.03 | 69 | 1010.5 |
| 20260506122053 | 11 | 10 | 6.4 | 12.9 | 0.00 | 0.03 | 0.03 | 69 | 1010.7 |
| 20260506121553 | 11 | 125 | 1.6 | 11.3 | 0.00 | 0.03 | 0.03 | 70 | 1010.5 |
| 20260506121325 | 11 | 297 | 3.2 | 12.9 | 0.00 | 0.03 | 0.03 | 70 | 1010.7 |
| 20260506120553 | 11 | 357 | 4.8 | 12.9 | 0.00 | 0.03 | 0.03 | 70 | 1010.6 |
| 20260506120324 | 11 | 76 | 1.6 | 11.3 | 0.00 | 0.03 | 0.03 | 70 | 1010.5 |
| 20260506115553 | 11 | 323 | 0.0 | 11.3 | 0.00 | 0.03 | 0.03 | 70 | 1010.5 |
| 20260506115053 | 11 | 258 | 1.6 | 14.5 | 0.00 | 0.03 | 0.03 | 69 | 1010.4 |
| 20260506114554 | 11 | 9 | 6.4 | 14.5 | 0.00 | 0.03 | 0.03 | 68 | 1010.3 |
| 20260506114053 | 12 | 335 | 4.8 | 12.9 | 0.00 | 0.03 | 0.03 | 68 | 1010.3 |
| 20260506113823 | 12 | 286 | 3.2 | 12.9 | 0.00 | 0.03 | 0.03 | 69 | 1010.2 |
| 20260506113054 | 12 | 308 | 3.2 | 9.7 | 0.00 | 0.03 | 0.03 | 69 | 1010.2 |
| 20260506112553 | 12 | 356 | 1.6 | 9.7 | 0.00 | 0.03 | 0.03 | 69 | 1010.4 |
| 20260506112053 | 12 | 249 | 1.6 | 9.7 | 0.00 | 0.03 | 0.03 | 69 | 1010.3 |
| 20260506111552 | 12 | 19 | 4.8 | 9.7 | 0.00 | 0.03 | 0.03 | 68 | 1010.3 |
| 20260506111030 | 12 | 267 | 3.2 | 14.5 | 0.00 | 0.03 | 0.03 | 70 | 1010.2 |
| 20260506110531 | 12 | 236 | 3.2 | 14.5 | 0.00 | 0.03 | 0.03 | 69 | 1010.3 |
| 20260506110030 | 12 | 275 | 0.0 | 9.7 | 0.00 | 0.03 | 0.03 | 72 | 1010.2 |
| 20260506105535 | 12 | 285 | 1.6 | 12.9 | 0.00 | 0.03 | 0.03 | 73 | 1010.4 |
| 20260506105030 | 12 | 251 | 0.0 | 12.9 | 0.00 | 0.03 | 0.03 | 73 | 1010.3 |
| 20260506105019 | 12 | 233 | 3.2 | 12.9 | 0.00 | 0.03 | 0.03 | 74 | 1010.2 |
| 20260506104028 | 12 | 16 | 3.2 | 11.3 | 0.00 | 0.03 | 0.03 | 74 | 1010.0 |
| 20260506103531 | 12 | 275 | 0.0 | 11.3 | 0.00 | 0.03 | 0.03 | 76 | 1010.2 |
| 20260506103510 | 12 | 1 | 0.0 | 11.3 | 0.00 | 0.03 | 0.03 | 76 | 1010.1 |
| 20260506102521 | 11 | 349 | 3.2 | 14.5 | 0.00 | 0.03 | 0.03 | 76 | 1010.1 |
| 20260506102020 | 11 | 335 | 8.0 | 14.5 | 0.00 | 0.03 | 0.03 | 78 | 1010.1 |
| 20260506101521 | 11 | 95 | 3.2 | 11.3 | 0.00 | 0.03 | 0.03 | 80 | 1010.2 |
| 20260506101020 | 11 | 300 | 3.2 | 14.5 | 0.00 | 0.03 | 0.03 | 81 | 1010.0 |
| 20260506100519 | 11 | 270 | 1.6 | 14.5 | 0.00 | 0.03 | 0.03 | 80 | 1010.0 |
| 20260506100020 | 11 | 29 | 3.2 | 11.3 | 0.00 | 0.03 | 0.03 | 81 | 1009.9 |
| 20260506095520 | 11 | 315 | 3.2 | 11.3 | 0.00 | 0.03 | 0.03 | 80 | 1009.9 |
| 20260506095020 | 11 | 244 | 0.0 | 11.3 | 0.00 | 0.03 | 0.03 | 81 | 1009.9 |
| 20260506095013 | 11 | 344 | 6.4 | 16.1 | 0.00 | 0.03 | 0.03 | 80 | 1009.9 |
| 20260506094019 | 11 | 67 | 4.8 | 16.1 | 0.00 | 0.03 | 0.03 | 79 | 1009.8 |
| 20260506093520 | 11 | 2 | 3.2 | 12.9 | 0.00 | 0.03 | 0.03 | 80 | 1009.8 |
| 20260506093507 | 11 | 357 | 8.0 | 12.9 | 0.00 | 0.03 | 0.03 | 79 | 1009.7 |
| 20260506092520 | 11 | 287 | 3.2 | 11.3 | 0.00 | 0.05 | 0.03 | 81 | 1009.7 |
| 20260506092020 | 11 | 284 | 1.6 | 11.3 | 0.00 | 0.05 | 0.03 | 81 | 1009.7 |
| 20260506091519 | 11 | 331 | 3.2 | 12.9 | 0.00 | 0.05 | 0.03 | 81 | 1009.6 |
| 20260506091019 | 11 | 12 | 3.2 | 12.9 | 0.00 | 0.05 | 0.03 | 81 | 1009.5 |
| 20260506090520 | 11 | 278 | 4.8 | 9.7 | 0.00 | 0.05 | 0.03 | 82 | 1009.5 |
| 20260506090020 | 11 | 281 | 3.2 | 12.9 | 0.00 | 0.05 | 0.03 | 82 | 1009.6 |
| 20260506085520 | 11 | 300 | 6.4 | 12.9 | 0.00 | 0.05 | 0.03 | 83 | 1009.5 |
| 20260506085020 | 11 | 303 | 1.6 | 6.4 | 0.00 | 0.05 | 0.03 | 84 | 1009.6 |
| 20260506084502 | 11 | 356 | 3.2 | 9.7 | 0.00 | 0.05 | 0.03 | 84 | 1009.5 |
| 20260506084234 | 11 | 349 | 4.8 | 14.5 | 0.00 | 0.05 | 0.03 | 85 | 1009.4 |
| 20260506083736 | 11 | 356 | 9.7 | 14.5 | 0.00 | 0.05 | 0.03 | 85 | 1009.5 |
| 20260506083232 | 11 | 284 | 3.2 | 9.7 | 0.00 | 0.05 | 0.03 | 86 | 1009.5 |
| 20260506082450 | 11 | 292 | 4.8 | 9.7 | 0.00 | 0.05 | 0.03 | 86 | 1009.4 |
| 20260506081952 | 10 | 250 | 1.6 | 9.7 | 0.00 | 0.05 | 0.03 | 87 | 1009.5 |
| 20260506081447 | 11 | 353 | 6.4 | 9.7 | 0.00 | 0.05 | 0.03 | 87 | 1009.3 |
| 20260506080951 | 10 | 353 | 1.6 | 4.8 | 0.00 | 0.05 | 0.03 | 87 | 1009.4 |
| 20260506080447 | 10 | 269 | 0.0 | 4.8 | 0.00 | 0.05 | 0.03 | 88 | 1009.3 |
| 20260506073452 | 10 | 325 | 6.4 | 12.9 | 0.00 | 0.05 | 0.03 | 90 | 1009.5 |
| 20260506072947 | 10 | 285 | 1.6 | 12.9 | 0.00 | 0.05 | 0.03 | 91 | 1009.3 |
| 20260506072447 | 10 | 277 | 1.6 | 12.9 | 0.00 | 0.05 | 0.03 | 91 | 1009.5 |
| 20260506071947 | 9 | 298 | 6.4 | 11.3 | 0.00 | 0.05 | 0.03 | 91 | 1009.5 |
| 20260506071447 | 9 | 257 | 1.6 | 12.9 | 0.00 | 0.05 | 0.03 | 92 | 1009.4 |
| 20260506071208 | 9 | 287 | 4.8 | 12.9 | 0.00 | 0.05 | 0.03 | 92 | 1009.3 |
| 20260506070446 | 9 | 241 | 1.6 | 6.4 | 0.00 | 0.05 | 0.03 | 92 | 1009.4 |
| 20260506062444 | 8 | 294 | 3.2 | 6.4 | 0.03 | 0.05 | 0.03 | 96 | 1009.1 |
| 20260506061947 | 8 | 260 | 1.6 | 6.4 | 0.03 | 0.05 | 0.03 | 96 | 1009.1 |
| 20260506061448 | 8 | 269 | 1.6 | 4.8 | 0.03 | 0.05 | 0.03 | 97 | 1009.2 |
| 20260506060945 | 8 | 314 | 3.2 | 4.8 | 0.03 | 0.05 | 0.03 | 97 | 1009.0 |
| 20260506060712 | 8 | 259 | 1.6 | 4.8 | 0.03 | 0.05 | 0.03 | 97 | 1009.1 |
| 20260506060209 | 8 | 248 | 3.2 | 4.8 | 0.03 | 0.05 | 0.03 | 97 | 1009.1 |
| 20260506050944 | 8 | 358 | 1.6 | 6.4 | 0.00 | 0.03 | 0.00 | 97 | 1009.1 |
| 20260506050939 | 8 | 274 | 0.0 | 6.4 | 0.00 | 0.03 | 0.00 | 97 | 1009.1 |
| 20260506044429 | 8 | 344 | 3.2 | 6.4 | 0.00 | 0.03 | 0.00 | 96 | 1009.0 |
| 20260506043928 | 8 | 286 | 1.6 | 4.8 | 0.00 | 0.03 | 0.00 | 96 | 1009.0 |
| 20260506043656 | 8 | 334 | 1.6 | 11.3 | 0.00 | 0.03 | 0.00 | 96 | 1009.0 |
| 20260506043157 | 8 | 289 | 1.6 | 11.3 | 0.00 | 0.03 | 0.00 | 96 | 1008.9 |
| 20260506042430 | 8 | 270 | 1.6 | 4.8 | 0.00 | 0.03 | 0.00 | 96 | 1008.8 |
| 20260506041916 | 8 | 269 | 1.6 | 4.8 | 0.00 | 0.05 | 0.00 | 96 | 1009.0 |
| 20260506041640 | 8 | 258 | 1.6 | 9.7 | 0.00 | 0.05 | 0.00 | 96 | 1008.8 |
| 20260506040913 | 8 | 271 | 1.6 | 9.7 | 0.00 | 0.10 | 0.00 | 96 | 1008.8 |
| 20260506040411 | 8 | 341 | 3.2 | 6.4 | 0.00 | 0.10 | 0.00 | 96 | 1008.7 |
| 20260506035914 | 8 | 265 | 3.2 | 6.4 | 0.00 | 0.10 | 0.00 | 96 | 1009.0 |
| 20260506035413 | 8 | 309 | 3.2 | 4.8 | 0.00 | 0.10 | 0.00 | 96 | 1008.9 |
| 20260506034912 | 8 | 263 | 3.2 | 6.4 | 0.00 | 0.10 | 0.00 | 96 | 1009.0 |
| 20260506034413 | 8 | 258 | 1.6 | 6.4 | 0.00 | 0.10 | 0.00 | 97 | 1009.3 |
| 20260506034144 | 8 | 346 | 1.6 | 9.7 | 0.00 | 0.10 | 0.00 | 97 | 1009.0 |
| 20260506033412 | 8 | 284 | 3.2 | 9.7 | 0.00 | 0.10 | 0.00 | 97 | 1009.1 |
| 20260506033135 | 8 | 271 | 1.6 | 9.7 | 0.00 | 0.10 | 0.00 | 97 | 1009.1 |
| 20260506032633 | 8 | 10 | 6.4 | 9.7 | 0.00 | 0.10 | 0.00 | 97 | 1009.0 |
| 20260506031912 | 8 | 272 | 1.6 | 6.4 | 0.00 | 0.10 | 0.00 | 97 | 1008.9 |
| 20260506031411 | 8 | 277 | 4.8 | 11.3 | 0.00 | 0.10 | 0.00 | 97 | 1009.1 |
| 20260506030911 | 8 | 278 | 4.8 | 11.3 | 0.00 | 0.10 | 0.00 | 98 | 1009.0 |
| 20260506030411 | 8 | 341 | 4.8 | 6.4 | 0.00 | 0.10 | 0.00 | 98 | 1009.1 |
| 20260506025911 | 8 | 311 | 3.2 | 9.7 | 0.00 | 0.10 | 0.00 | 98 | 1009.0 |
| 20260506025410 | 8 | 273 | 3.2 | 9.7 | 0.00 | 0.10 | 0.00 | 98 | 1009.3 |
| 20260506024910 | 8 | 8 | 4.8 | 6.4 | 0.00 | 0.10 | 0.00 | 98 | 1009.3 |
| 20260506024410 | 8 | 266 | 0.0 | 6.4 | 0.00 | 0.10 | 0.00 | 98 | 1009.3 |
| 20260506023911 | 8 | 315 | 3.2 | 6.4 | 0.00 | 0.10 | 0.00 | 98 | 1009.4 |
| 20260506023410 | 8 | 318 | 1.6 | 6.4 | 0.00 | 0.10 | 0.00 | 98 | 1009.3 |
| 20260506022910 | 8 | 258 | 1.6 | 6.4 | 0.00 | 0.10 | 0.00 | 98 | 1009.3 |
| 20260506022410 | 8 | 285 | 1.6 | 6.4 | 0.00 | 0.10 | 0.00 | 98 | 1009.4 |
| 20260506021910 | 8 | 298 | 1.6 | 4.8 | 0.00 | 0.10 | 0.00 | 98 | 1009.2 |
| 20260506021408 | 8 | 241 | 1.6 | 4.8 | 0.00 | 0.10 | 0.00 | 97 | 1009.4 |
| 20260506020911 | 8 | 293 | 0.0 | 9.7 | 0.00 | 0.10 | 0.00 | 97 | 1009.4 |
| 20260506020410 | 8 | 316 | 1.6 | 9.7 | 0.00 | 0.10 | 0.00 | 97 | 1009.3 |
| 20260506015910 | 8 | 352 | 1.6 | 9.7 | 0.00 | 0.10 | 0.00 | 97 | 1009.3 |
| 20260506015410 | 8 | 40 | 1.6 | 9.7 | 0.00 | 0.10 | 0.00 | 97 | 1009.7 |
| 20260506014905 | 8 | 267 | 0.0 | 11.3 | 0.00 | 0.10 | 0.00 | 96 | 1009.4 |
| 20260506014849 | 8 | 292 | 1.6 | 11.3 | 0.00 | 0.10 | 0.00 | 96 | 1009.3 |
| 20260506014129 | 8 | 267 | 0.0 | 9.7 | 0.00 | 0.10 | 0.00 | 95 | 1009.5 |
| 20260506013402 | 8 | 257 | 4.8 | 14.5 | 0.00 | 0.10 | 0.00 | 94 | 1009.5 |
| 20260506013127 | 8 | 283 | 4.8 | 14.5 | 0.00 | 0.10 | 0.00 | 93 | 1009.4 |
| 20260506012625 | 8 | 346 | 1.6 | 9.7 | 0.00 | 0.10 | 0.00 | 92 | 1009.4 |
| 20260506012126 | 9 | 271 | 1.6 | 6.4 | 0.00 | 0.10 | 0.00 | 91 | 1009.7 |
| 20260506011401 | 9 | 342 | 1.6 | 9.7 | 0.00 | 0.10 | 0.00 | 91 | 1009.5 |
| 20260506010901 | 9 | 290 | 1.6 | 11.3 | 0.00 | 0.10 | 0.00 | 90 | 1009.4 |
| 20260506010632 | 9 | 324 | 3.2 | 11.3 | 0.00 | 0.10 | 0.00 | 90 | 1009.6 |
| 20260506005901 | 9 | 333 | 1.6 | 11.3 | 0.00 | 0.10 | 0.00 | 90 | 1009.7 |
| 20260506005400 | 9 | 292 | 1.6 | 4.8 | 0.00 | 0.10 | 0.00 | 89 | 1009.8 |
| 20260506004900 | 9 | 290 | 0.0 | 6.4 | 0.00 | 0.10 | 0.00 | 89 | 1009.8 |
| 20260506004403 | 9 | 325 | 3.2 | 12.9 | 0.00 | 0.10 | 0.00 | 89 | 1009.8 |
| 20260506003902 | 9 | 39 | 3.2 | 12.9 | 0.00 | 0.10 | 0.00 | 89 | 1009.7 |
| 20260506003402 | 9 | 349 | 3.2 | 4.8 | 0.00 | 0.10 | 0.00 | 89 | 1009.8 |
| 20260506002842 | 9 | 276 | 0.0 | 6.4 | 0.00 | 0.10 | 0.00 | 89 | 1009.9 |
| 20260506002342 | 9 | 292 | 1.6 | 9.7 | 0.00 | 0.10 | 0.00 | 89 | 1009.9 |
| 20260506002102 | 9 | 314 | 1.6 | 11.3 | 0.00 | 0.10 | 0.00 | 89 | 1009.9 |
| 20260506001337 | 9 | 349 | 3.2 | 11.3 | 0.00 | 0.10 | 0.00 | 88 | 1009.8 |
| 20260506000840 | 9 | 334 | 6.4 | 9.7 | 0.00 | 0.10 | 0.00 | 88 | 1009.8 |
| 20260506000337 | 9 | 275 | 0.0 | 6.4 | 0.00 | 0.10 | 0.00 | 88 | 1010.0 |
| 20260506000104 | 9 | 261 | 0.0 | 4.8 | 0.00 | 0.10 | 0.00 | 88 | 1010.1 |
| 20260505235336 | 9 | 343 | 1.6 | 4.8 | 0.00 | 0.10 | 0.00 | 88 | 1010.1 |
| 20260505234835 | 9 | 278 | 0.0 | 9.7 | 0.00 | 0.13 | 0.00 | 88 | 1010.0 |
| 20260505234335 | 9 | 326 | 4.8 | 9.7 | 0.00 | 0.13 | 0.00 | 88 | 1010.2 |
| 20260505233835 | 9 | 303 | 3.2 | 9.7 | 0.00 | 0.13 | 0.00 | 88 | 1010.2 |
| 20260505233334 | 9 | 347 | 4.8 | 9.7 | 0.00 | 0.13 | 0.00 | 88 | 1010.1 |
| 20260505232835 | 9 | 342 | 1.6 | 12.9 | 0.00 | 0.13 | 0.00 | 88 | 1010.1 |
| 20260505232335 | 9 | 19 | 9.7 | 12.9 | 0.00 | 0.15 | 0.00 | 88 | 1010.3 |
| 20260505232100 | 9 | 212 | 3.2 | 11.3 | 0.00 | 0.15 | 0.00 | 88 | 1010.3 |
| 20260505231335 | 9 | 335 | 1.6 | 11.3 | 0.00 | 0.18 | 0.00 | 88 | 1010.2 |
| 20260505230835 | 10 | 288 | 3.2 | 11.3 | 0.00 | 0.18 | 0.00 | 88 | 1010.3 |
| 20260505230337 | 10 | 272 | 4.8 | 9.7 | 0.00 | 0.18 | 0.00 | 88 | 1010.4 |
| 20260505225834 | 10 | 302 | 1.6 | 11.3 | 0.00 | 0.18 | 0.00 | 88 | 1010.4 |
| 20260505225330 | 10 | 266 | 3.2 | 11.3 | 0.00 | 0.20 | 0.00 | 88 | 1010.5 |
| 20260505225053 | 10 | 264 | 0.0 | 11.3 | 0.00 | 0.20 | 0.00 | 88 | 1010.5 |
| 20260505224329 | 10 | 348 | 6.4 | 11.3 | 0.00 | 0.23 | 0.00 | 88 | 1010.5 |
| 20260505223829 | 10 | 22 | 3.2 | 11.3 | 0.00 | 0.28 | 0.00 | 88 | 1010.4 |
| 20260505223329 | 10 | 309 | 1.6 | 14.5 | 0.00 | 0.33 | 0.00 | 89 | 1010.4 |
| 20260505222829 | 10 | 271 | 1.6 | 14.5 | 0.00 | 0.36 | 0.00 | 89 | 1010.6 |
| 20260505222330 | 10 | 288 | 3.2 | 6.4 | 0.00 | 0.41 | 0.00 | 89 | 1010.6 |
| 20260505221831 | 10 | 262 | 1.6 | 11.3 | 0.00 | 0.48 | 0.00 | 89 | 1010.5 |
| 20260505221330 | 10 | 2 | 4.8 | 11.3 | 0.00 | 0.58 | 0.00 | 89 | 1010.5 |
| 20260505220829 | 10 | 290 | 3.2 | 11.3 | 0.00 | 0.71 | 0.00 | 88 | 1010.6 |
| 20260505220330 | 10 | 299 | 1.6 | 9.7 | 0.00 | 0.74 | 0.00 | 89 | 1010.7 |
| 20260505215832 | 10 | 263 | 1.6 | 9.7 | 0.00 | 0.74 | 0.74 | 89 | 1010.7 |
| 20260505215600 | 10 | 352 | 6.4 | 14.5 | 0.00 | 0.74 | 0.74 | 89 | 1010.7 |
| 20260505214831 | 10 | 264 | 1.6 | 14.5 | 0.00 | 0.74 | 0.74 | 89 | 1010.7 |
| 20260505214601 | 10 | 355 | 0.0 | 9.7 | 0.00 | 0.74 | 0.74 | 89 | 1011.0 |
| 20260505213831 | 10 | 75 | 1.6 | 9.7 | 0.00 | 0.74 | 0.74 | 90 | 1010.8 |
| 20260505213331 | 10 | 358 | 1.6 | 11.3 | 0.00 | 0.76 | 0.74 | 90 | 1010.8 |
| 20260505212831 | 10 | 336 | 3.2 | 11.3 | 0.00 | 0.81 | 0.74 | 90 | 1010.9 |
| 20260505212600 | 10 | 22 | 3.2 | 9.7 | 0.00 | 0.81 | 0.74 | 90 | 1010.9 |
| 20260505211831 | 10 | 339 | 3.2 | 9.7 | 0.00 | 0.84 | 0.74 | 90 | 1010.9 |
| 20260505211331 | 10 | 285 | 1.6 | 9.7 | 0.00 | 0.84 | 0.74 | 90 | 1010.9 |
| 20260505210831 | 10 | 341 | 0.0 | 9.7 | 0.00 | 0.84 | 0.74 | 90 | 1011.0 |
| 20260505210331 | 10 | 72 | 0.0 | 11.3 | 0.00 | 0.84 | 0.74 | 90 | 1010.9 |
| 20260505210058 | 10 | 313 | 3.2 | 11.3 | 0.00 | 0.84 | 0.74 | 89 | 1011.0 |
| 20260505205329 | 10 | 354 | 3.2 | 16.1 | 0.00 | 0.84 | 0.74 | 89 | 1010.9 |
| 20260505204829 | 10 | 345 | 3.2 | 16.1 | 0.00 | 0.84 | 0.74 | 89 | 1010.8 |
| 20260505204328 | 10 | 252 | 1.6 | 9.7 | 0.00 | 0.84 | 0.74 | 89 | 1011.1 |